Terminal Aerodrome Forecast
Issued by NWS Kansas City/Pleasant Hill, MO

Home | Current Version | Previous Version | Text Only | Print | Product List | Glossary On
Versions: 1 2 3 4 5 6 7 8 9 10 11 12 13 14 15
770
FTUS43 KEAX 212320
TAFMCI
TAF
KMCI 212320Z 2200/2224 19012KT P6SM FEW250
     FM220500 20012KT P6SM FEW250 WS020/22045KT
     FM221300 22010KT P6SM FEW250
     FM221700 25008KT P6SM FEW250=

USA.gov is the U.S. government's official web portal to all federal, state and local government web resources and services.